Carbondale, CO (81623)

8:27 AM MDT on August 03, 2015 (GMT -0600)
Snowmass Village - Melton Ranch | | Change Station
CLOSE
Current Station
Personal Weather Station
Location: Aspen, CO
Elevation: 8251 ft
Nearby Weather Stations

Elev 8251 ft 39.22 °N, 106.94 °W | Updated 11 minutes ago

Rain
Rain
52.2 °F
Feels Like 52.2 °F
N
2.2
Wind Variable Wind from NNE

Today
High -- | Low -- °F
--% Chance of Precip.
Yesterday
High -- | Low -- °F
Precip. -- in
6:10 AM 8:18 PM
Waning Gibbous, 86% visible
Pressure 30.51 in
Visibility 7.0 miles
Clouds Scattered Clouds 3100 ft
Mostly Cloudy 3700 ft
Overcast 4300 ft
Dew Point 49 °F
Humidity 89%
Rainfall 0.02 in
Snow Depth Not available.
UV out of 12
Pollen 4.90 out of 12
Air Quality Not available.
Flu Activity Not available.
METAR K5SM 031413Z AUTO 00000KT 7SM -RA SCT031 BKN037 OVC043 09/08 A3051 RMK AO2

More Conditions Fewer Conditions

Pressure 30.51 in
Visibility 7.0 miles
Clouds Scattered Clouds 3100 ft
Mostly Cloudy 3700 ft
Overcast 4300 ft
Dew Point 49 °F
Humidity 89%
Rainfall 0.02 in
Snow Depth Not available.
UV out of 12
Pollen 4.90 out of 12
Air Quality Not available.
Flu Activity Not available.
METAR K5SM 031413Z AUTO 00000KT 7SM -RA SCT031 BKN037 OVC043 09/08 A3051 RMK AO2

More Conditions Fewer Conditions

10-Day Weather Forecast

×

Almanac

Astronomy

Aug. 03, 2015 Rise Set
Actual Time
Civil Twilight
Nautical Twilight
Astronomical Twilight
Moon
Length of Visible Light
Length of Day
Tomorrow will be .
, % of the Moon is Illuminated

Today's Extremes

State Highs State Lows

Community

WunderPhotos

Upload Photos

1,843,638 photos uploaded!

WunderBlogs® & News

Nearby

Air Quality

  Air Quality AQ Index Pollutant
Not available.

Snow Depth

Station Depth Elevation

Earthquake Activity

City Distance Mag. Time & Date
Minimum magnitude displayed is 2.5.

Coastal Water Temperatures

Place Temperature

Stations

Nearby Weather Stations

Station Location Temp. Windchill Dew Point Humidity Wind Precip. Elev Updated Type